sensor_id;sensor_type;location;lat;lon;timestamp;temperature;humidity
82039;DHT22;71610;42.628;23.378;2023-10-13T00:01:56;21.60;42.60
82039;DHT22;71610;42.628;23.378;2023-10-13T00:04:25;21.60;42.60
82039;DHT22;71610;42.628;23.378;2023-10-13T00:06:55;21.60;42.60
82039;DHT22;71610;42.628;23.378;2023-10-13T00:09:24;21.60;42.50
82039;DHT22;71610;42.628;23.378;2023-10-13T00:11:54;21.60;42.60
82039;DHT22;71610;42.628;23.378;2023-10-13T00:14:20;21.60;42.60
82039;DHT22;71610;42.628;23.378;2023-10-13T00:16:57;21.60;42.60
82039;DHT22;71610;42.628;23.378;2023-10-13T00:19:45;21.60;42.60
82039;DHT22;71610;42.628;23.378;2023-10-13T00:22:12;21.60;42.60
82039;DHT22;71610;42.628;23.378;2023-10-13T00:24:39;21.60;42.60
82039;DHT22;71610;42.628;23.378;2023-10-13T00:27:15;21.60;42.50
82039;DHT22;71610;42.628;23.378;2023-10-13T00:29:54;21.60;42.50
82039;DHT22;71610;42.628;23.378;2023-10-13T00:32:40;21.60;42.50
82039;DHT22;71610;42.628;23.378;2023-10-13T00:35:10;21.60;42.50
82039;DHT22;71610;42.628;23.378;2023-10-13T00:37:54;21.50;42.50
82039;DHT22;71610;42.628;23.378;2023-10-13T00:40:20;21.50;42.70
82039;DHT22;71610;42.628;23.378;2023-10-13T00:42:56;21.50;42.60
82039;DHT22;71610;42.628;23.378;2023-10-13T00:45:34;21.50;42.60
82039;DHT22;71610;42.628;23.378;2023-10-13T00:48:00;21.50;42.50
82039;DHT22;71610;42.628;23.378;2023-10-13T00:50:27;21.50;42.50
82039;DHT22;71610;42.628;23.378;2023-10-13T00:52:55;21.50;42.50
82039;DHT22;71610;42.628;23.378;2023-10-13T00:55:21;21.60;42.50
82039;DHT22;71610;42.628;23.378;2023-10-13T00:57:51;21.60;42.50
82039;DHT22;71610;42.628;23.378;2023-10-13T01:00:19;21.60;42.40
82039;DHT22;71610;42.628;23.378;2023-10-13T01:02:49;21.60;42.40
82039;DHT22;71610;42.628;23.378;2023-10-13T01:05:25;21.60;42.40
82039;DHT22;71610;42.628;23.378;2023-10-13T01:07:51;21.60;42.40
82039;DHT22;71610;42.628;23.378;2023-10-13T01:10:21;21.60;42.40
82039;DHT22;71610;42.628;23.378;2023-10-13T01:12:51;21.50;42.40
82039;DHT22;71610;42.628;23.378;2023-10-13T01:15:20;21.60;42.40
82039;DHT22;71610;42.628;23.378;2023-10-13T01:17:48;21.50;42.30
82039;DHT22;71610;42.628;23.378;2023-10-13T01:20:14;21.50;42.30
82039;DHT22;71610;42.628;23.378;2023-10-13T01:22:50;21.60;42.30
82039;DHT22;71610;42.628;23.378;2023-10-13T01:25:23;21.60;42.30
82039;DHT22;71610;42.628;23.378;2023-10-13T01:27:54;21.50;42.30
82039;DHT22;71610;42.628;23.378;2023-10-13T01:30:20;21.60;42.30
82039;DHT22;71610;42.628;23.378;2023-10-13T01:32:53;21.50;42.30
82039;DHT22;71610;42.628;23.378;2023-10-13T01:35:25;21.50;42.30
82039;DHT22;71610;42.628;23.378;2023-10-13T01:38:00;21.60;42.30
82039;DHT22;71610;42.628;23.378;2023-10-13T01:40:26;21.50;42.30
82039;DHT22;71610;42.628;23.378;2023-10-13T01:42:54;21.60;42.30
82039;DHT22;71610;42.628;23.378;2023-10-13T01:45:23;21.50;42.20
82039;DHT22;71610;42.628;23.378;2023-10-13T01:47:54;21.50;42.20
82039;DHT22;71610;42.628;23.378;2023-10-13T01:50:21;21.50;42.20
82039;DHT22;71610;42.628;23.378;2023-10-13T01:52:53;21.50;42.20
82039;DHT22;71610;42.628;23.378;2023-10-13T01:55:40;21.50;42.20
82039;DHT22;71610;42.628;23.378;2023-10-13T01:58:15;21.50;42.20
82039;DHT22;71610;42.628;23.378;2023-10-13T02:00:42;21.60;42.20
82039;DHT22;71610;42.628;23.378;2023-10-13T02:03:10;21.50;42.20
82039;DHT22;71610;42.628;23.378;2023-10-13T02:05:43;21.50;42.20
82039;DHT22;71610;42.628;23.378;2023-10-13T02:08:19;21.50;42.20
82039;DHT22;71610;42.628;23.378;2023-10-13T02:10:55;21.50;42.20
82039;DHT22;71610;42.628;23.378;2023-10-13T02:13:23;21.50;42.10
82039;DHT22;71610;42.628;23.378;2023-10-13T02:15:49;21.50;42.20
82039;DHT22;71610;42.628;23.378;2023-10-13T02:18:19;21.50;42.20
82039;DHT22;71610;42.628;23.378;2023-10-13T02:21:08;21.50;42.20
82039;DHT22;71610;42.628;23.378;2023-10-13T02:23:41;21.50;42.20
82039;DHT22;71610;42.628;23.378;2023-10-13T02:26:26;21.40;42.40
82039;DHT22;71610;42.628;23.378;2023-10-13T02:29:03;21.40;42.30
82039;DHT22;71610;42.628;23.378;2023-10-13T02:31:34;21.50;43.40
82039;DHT22;71610;42.628;23.378;2023-10-13T02:34:00;21.50;42.20
82039;DHT22;71610;42.628;23.378;2023-10-13T02:36:32;21.40;42.20
82039;DHT22;71610;42.628;23.378;2023-10-13T02:39:12;21.40;42.10
82039;DHT22;71610;42.628;23.378;2023-10-13T02:41:39;21.50;42.20
82039;DHT22;71610;42.628;23.378;2023-10-13T02:44:07;21.40;42.10
82039;DHT22;71610;42.628;23.378;2023-10-13T02:46:34;21.50;42.20
82039;DHT22;71610;42.628;23.378;2023-10-13T02:49:05;21.50;42.10
82039;DHT22;71610;42.628;23.378;2023-10-13T02:51:37;21.40;42.10
82039;DHT22;71610;42.628;23.378;2023-10-13T02:54:06;21.50;42.10
82039;DHT22;71610;42.628;23.378;2023-10-13T02:56:39;21.50;42.10
82039;DHT22;71610;42.628;23.378;2023-10-13T02:59:26;21.50;42.10
82039;DHT22;71610;42.628;23.378;2023-10-13T03:02:04;21.50;42.10
82039;DHT22;71610;42.628;23.378;2023-10-13T03:07:11;21.50;42.10
82039;DHT22;71610;42.628;23.378;2023-10-13T03:09:41;21.50;42.10
82039;DHT22;71610;42.628;23.378;2023-10-13T03:12:15;21.40;42.00
82039;DHT22;71610;42.628;23.378;2023-10-13T03:14:41;21.50;42.10
82039;DHT22;71610;42.628;23.378;2023-10-13T03:17:07;21.50;42.10
82039;DHT22;71610;42.628;23.378;2023-10-13T03:19:43;21.50;42.10
82039;DHT22;71610;42.628;23.378;2023-10-13T03:22:11;21.50;42.10
82039;DHT22;71610;42.628;23.378;2023-10-13T03:24:39;21.40;43.20
82039;DHT22;71610;42.628;23.378;2023-10-13T03:27:21;21.40;41.90
82039;DHT22;71610;42.628;23.378;2023-10-13T03:29:50;21.40;42.00
82039;DHT22;71610;42.628;23.378;2023-10-13T03:32:22;21.40;42.00
82039;DHT22;71610;42.628;23.378;2023-10-13T03:34:51;21.50;42.00
82039;DHT22;71610;42.628;23.378;2023-10-13T03:37:18;21.40;42.00
82039;DHT22;71610;42.628;23.378;2023-10-13T03:39:45;21.50;42.10
82039;DHT22;71610;42.628;23.378;2023-10-13T03:42:11;21.50;42.00
82039;DHT22;71610;42.628;23.378;2023-10-13T03:44:47;21.40;42.00
82039;DHT22;71610;42.628;23.378;2023-10-13T03:47:13;21.40;42.00
82039;DHT22;71610;42.628;23.378;2023-10-13T03:49:59;21.40;42.00
82039;DHT22;71610;42.628;23.378;2023-10-13T03:52:58;21.40;42.00
82039;DHT22;71610;42.628;23.378;2023-10-13T03:55:27;21.50;42.90
82039;DHT22;71610;42.628;23.378;2023-10-13T03:57:54;21.50;44.20
82039;DHT22;71610;42.628;23.378;2023-10-13T04:00:22;21.50;44.80
82039;DHT22;71610;42.628;23.378;2023-10-13T04:02:53;21.40;44.90
82039;DHT22;71610;42.628;23.378;2023-10-13T04:05:28;21.40;44.90
82039;DHT22;71610;42.628;23.378;2023-10-13T04:08:05;21.40;44.80
82039;DHT22;71610;42.628;23.378;2023-10-13T04:10:51;21.40;44.70
82039;DHT22;71610;42.628;23.378;2023-10-13T04:13:17;21.40;44.30
82039;DHT22;71610;42.628;23.378;2023-10-13T04:15:45;21.40;44.10
82039;DHT22;71610;42.628;23.378;2023-10-13T04:18:30;21.40;43.90
82039;DHT22;71610;42.628;23.378;2023-10-13T04:21:22;21.40;43.90
82039;DHT22;71610;42.628;23.378;2023-10-13T04:24:12;21.40;43.50
82039;DHT22;71610;42.628;23.378;2023-10-13T04:26:53;21.40;43.20
82039;DHT22;71610;42.628;23.378;2023-10-13T04:29:40;21.30;42.90
82039;DHT22;71610;42.628;23.378;2023-10-13T04:32:24;21.30;43.00
82039;DHT22;71610;42.628;23.378;2023-10-13T04:35:04;21.30;43.10
82039;DHT22;71610;42.628;23.378;2023-10-13T04:37:44;21.30;43.20
82039;DHT22;71610;42.628;23.378;2023-10-13T04:40:17;21.30;43.30
82039;DHT22;71610;42.628;23.378;2023-10-13T04:42:45;21.40;43.40
82039;DHT22;71610;42.628;23.378;2023-10-13T04:45:30;21.40;43.40
82039;DHT22;71610;42.628;23.378;2023-10-13T04:47:56;21.40;43.30
82039;DHT22;71610;42.628;23.378;2023-10-13T04:50:24;21.40;43.30
82039;DHT22;71610;42.628;23.378;2023-10-13T04:53:00;21.40;43.30
82039;DHT22;71610;42.628;23.378;2023-10-13T04:55:38;21.40;43.40
82039;DHT22;71610;42.628;23.378;2023-10-13T04:58:25;21.40;43.50
82039;DHT22;71610;42.628;23.378;2023-10-13T05:01:02;21.40;43.40
82039;DHT22;71610;42.628;23.378;2023-10-13T05:03:46;21.50;43.40
82039;DHT22;71610;42.628;23.378;2023-10-13T05:06:37;21.40;43.50
82039;DHT22;71610;42.628;23.378;2023-10-13T05:09:10;21.40;43.40
82039;DHT22;71610;42.628;23.378;2023-10-13T05:11:55;21.40;43.30
82039;DHT22;71610;42.628;23.378;2023-10-13T05:14:39;21.40;43.30
82039;DHT22;71610;42.628;23.378;2023-10-13T05:17:23;21.40;43.30
82039;DHT22;71610;42.628;23.378;2023-10-13T05:20:08;21.50;43.20
82039;DHT22;71610;42.628;23.378;2023-10-13T05:22:52;21.50;43.20
82039;DHT22;71610;42.628;23.378;2023-10-13T05:25:37;21.50;43.50
82039;DHT22;71610;42.628;23.378;2023-10-13T05:28:22;21.50;43.70
82039;DHT22;71610;42.628;23.378;2023-10-13T05:31:07;21.50;43.70
82039;DHT22;71610;42.628;23.378;2023-10-13T05:33:53;21.50;43.70
82039;DHT22;71610;42.628;23.378;2023-10-13T05:36:38;21.60;44.10
82039;DHT22;71610;42.628;23.378;2023-10-13T05:39:23;21.60;44.50
82039;DHT22;71610;42.628;23.378;2023-10-13T05:42:07;21.60;44.90
82039;DHT22;71610;42.628;23.378;2023-10-13T05:44:51;21.60;45.30
82039;DHT22;71610;42.628;23.378;2023-10-13T05:47:35;21.70;46.40
82039;DHT22;71610;42.628;23.378;2023-10-13T05:50:16;21.80;47.50
82039;DHT22;71610;42.628;23.378;2023-10-13T05:52:48;21.80;47.60
82039;DHT22;71610;42.628;23.378;2023-10-13T05:55:30;21.90;47.60
82039;DHT22;71610;42.628;23.378;2023-10-13T05:58:15;22.00;48.10
82039;DHT22;71610;42.628;23.378;2023-10-13T06:01:00;22.00;47.80
82039;DHT22;71610;42.628;23.378;2023-10-13T06:03:44;22.00;47.50
82039;DHT22;71610;42.628;23.378;2023-10-13T06:06:28;22.00;47.60
82039;DHT22;71610;42.628;23.378;2023-10-13T06:09:12;22.00;47.70
82039;DHT22;71610;42.628;23.378;2023-10-13T06:11:56;22.10;47.90
82039;DHT22;71610;42.628;23.378;2023-10-13T06:14:40;22.10;48.00
82039;DHT22;71610;42.628;23.378;2023-10-13T06:17:28;22.10;48.20
82039;DHT22;71610;42.628;23.378;2023-10-13T06:20:12;22.20;48.50
82039;DHT22;71610;42.628;23.378;2023-10-13T06:22:56;22.20;48.00
82039;DHT22;71610;42.628;23.378;2023-10-13T06:25:41;22.20;47.90
82039;DHT22;71610;42.628;23.378;2023-10-13T06:28:25;22.20;47.80
82039;DHT22;71610;42.628;23.378;2023-10-13T06:31:11;22.20;47.80
82039;DHT22;71610;42.628;23.378;2023-10-13T06:33:51;22.20;47.60
82039;DHT22;71610;42.628;23.378;2023-10-13T06:36:17;22.30;47.60
82039;DHT22;71610;42.628;23.378;2023-10-13T06:38:43;22.30;47.60
82039;DHT22;71610;42.628;23.378;2023-10-13T06:41:09;22.30;47.50
82039;DHT22;71610;42.628;23.378;2023-10-13T06:43:45;22.30;47.60
82039;DHT22;71610;42.628;23.378;2023-10-13T06:46:11;22.30;47.60
82039;DHT22;71610;42.628;23.378;2023-10-13T06:48:49;22.40;48.00
82039;DHT22;71610;42.628;23.378;2023-10-13T06:51:19;22.40;47.70
82039;DHT22;71610;42.628;23.378;2023-10-13T06:53:52;22.40;47.30
82039;DHT22;71610;42.628;23.378;2023-10-13T06:56:22;22.40;47.10
82039;DHT22;71610;42.628;23.378;2023-10-13T06:58:53;22.40;46.90
82039;DHT22;71610;42.628;23.378;2023-10-13T07:01:28;22.30;46.70
82039;DHT22;71610;42.628;23.378;2023-10-13T07:03:54;22.40;46.60
82039;DHT22;71610;42.628;23.378;2023-10-13T07:06:21;22.30;46.50
82039;DHT22;71610;42.628;23.378;2023-10-13T07:08:47;22.30;46.40
82039;DHT22;71610;42.628;23.378;2023-10-13T07:11:24;22.30;47.00
82039;DHT22;71610;42.628;23.378;2023-10-13T07:14:01;22.40;46.70
82039;DHT22;71610;42.628;23.378;2023-10-13T07:19:31;22.30;46.90
82039;DHT22;71610;42.628;23.378;2023-10-13T07:21:58;22.30;47.30
82039;DHT22;71610;42.628;23.378;2023-10-13T07:24:28;22.30;47.70
82039;DHT22;71610;42.628;23.378;2023-10-13T07:26:58;22.30;48.00
82039;DHT22;71610;42.628;23.378;2023-10-13T07:29:33;22.40;48.10
82039;DHT22;71610;42.628;23.378;2023-10-13T07:32:02;22.40;48.10
82039;DHT22;71610;42.628;23.378;2023-10-13T07:34:29;22.40;47.90
82039;DHT22;71610;42.628;23.378;2023-10-13T07:36:58;22.40;48.30
82039;DHT22;71610;42.628;23.378;2023-10-13T07:39:33;22.40;48.70
82039;DHT22;71610;42.628;23.378;2023-10-13T07:42:04;22.40;48.90
82039;DHT22;71610;42.628;23.378;2023-10-13T07:44:50;22.50;48.90
82039;DHT22;71610;42.628;23.378;2023-10-13T07:47:21;22.50;48.90
82039;DHT22;71610;42.628;23.378;2023-10-13T07:49:50;22.60;48.80
82039;DHT22;71610;42.628;23.378;2023-10-13T07:52:16;22.60;48.70
82039;DHT22;71610;42.628;23.378;2023-10-13T07:54:46;22.60;48.50
82039;DHT22;71610;42.628;23.378;2023-10-13T07:57:15;22.60;48.30
82039;DHT22;71610;42.628;23.378;2023-10-13T07:59:41;22.60;48.00
82039;DHT22;71610;42.628;23.378;2023-10-13T08:02:15;22.60;48.00
82039;DHT22;71610;42.628;23.378;2023-10-13T08:05:00;22.60;47.50
82039;DHT22;71610;42.628;23.378;2023-10-13T08:07:26;22.60;46.60
82039;DHT22;71610;42.628;23.378;2023-10-13T08:09:54;22.60;46.50
82039;DHT22;71610;42.628;23.378;2023-10-13T08:12:20;22.60;46.00
82039;DHT22;71610;42.628;23.378;2023-10-13T08:14:48;22.60;45.60
82039;DHT22;71610;42.628;23.378;2023-10-13T08:17:14;22.60;45.60
82039;DHT22;71610;42.628;23.378;2023-10-13T08:19:40;22.70;45.60
82039;DHT22;71610;42.628;23.378;2023-10-13T08:22:10;22.70;45.60
82039;DHT22;71610;42.628;23.378;2023-10-13T08:24:48;22.60;45.60
82039;DHT22;71610;42.628;23.378;2023-10-13T08:27:16;22.60;45.50
82039;DHT22;71610;42.628;23.378;2023-10-13T08:30:01;22.60;45.20
82039;DHT22;71610;42.628;23.378;2023-10-13T08:32:28;22.60;44.90
82039;DHT22;71610;42.628;23.378;2023-10-13T08:37:21;22.60;44.40
82039;DHT22;71610;42.628;23.378;2023-10-13T08:40:05;22.60;44.20
82039;DHT22;71610;42.628;23.378;2023-10-13T08:42:33;22.60;43.20
82039;DHT22;71610;42.628;23.378;2023-10-13T08:45:16;22.60;43.50
82039;DHT22;71610;42.628;23.378;2023-10-13T08:47:52;22.60;43.10
82039;DHT22;71610;42.628;23.378;2023-10-13T08:53:28;22.50;44.20
82039;DHT22;71610;42.628;23.378;2023-10-13T08:56:09;22.60;45.50
82039;DHT22;71610;42.628;23.378;2023-10-13T08:58:46;22.60;46.40
82039;DHT22;71610;42.628;23.378;2023-10-13T09:01:28;22.60;46.90
82039;DHT22;71610;42.628;23.378;2023-10-13T09:06:59;22.60;47.30
82039;DHT22;71610;42.628;23.378;2023-10-13T09:09:26;22.60;47.00
82039;DHT22;71610;42.628;23.378;2023-10-13T09:12:21;22.60;46.90
82039;DHT22;71610;42.628;23.378;2023-10-13T09:15:09;22.60;47.10
82039;DHT22;71610;42.628;23.378;2023-10-13T09:17:45;22.60;46.70
82039;DHT22;71610;42.628;23.378;2023-10-13T09:20:28;22.60;47.50
82039;DHT22;71610;42.628;23.378;2023-10-13T09:23:14;22.60;46.20
82039;DHT22;71610;42.628;23.378;2023-10-13T09:25:51;22.60;46.50
82039;DHT22;71610;42.628;23.378;2023-10-13T09:28:23;22.60;46.70
82039;DHT22;71610;42.628;23.378;2023-10-13T09:30:52;22.60;46.70
82039;DHT22;71610;42.628;23.378;2023-10-13T09:33:36;22.60;46.50
82039;DHT22;71610;42.628;23.378;2023-10-13T09:36:03;22.70;46.30
82039;DHT22;71610;42.628;23.378;2023-10-13T09:38:33;22.60;47.30
82039;DHT22;71610;42.628;23.378;2023-10-13T09:40:59;22.60;46.20
82039;DHT22;71610;42.628;23.378;2023-10-13T09:43:43;22.60;46.20
82039;DHT22;71610;42.628;23.378;2023-10-13T09:46:10;22.50;46.20
82039;DHT22;71610;42.628;23.378;2023-10-13T09:48:47;22.50;46.20
82039;DHT22;71610;42.628;23.378;2023-10-13T09:51:14;22.50;46.20
82039;DHT22;71610;42.628;23.378;2023-10-13T09:54:08;22.50;46.30
82039;DHT22;71610;42.628;23.378;2023-10-13T09:56:48;22.50;46.30
82039;DHT22;71610;42.628;23.378;2023-10-13T09:59:44;22.50;46.30
82039;DHT22;71610;42.628;23.378;2023-10-13T10:02:18;22.50;46.20
82039;DHT22;71610;42.628;23.378;2023-10-13T10:04:57;22.50;46.30
82039;DHT22;71610;42.628;23.378;2023-10-13T10:07:57;22.40;46.30
82039;DHT22;71610;42.628;23.378;2023-10-13T10:13:21;22.40;46.30
82039;DHT22;71610;42.628;23.378;2023-10-13T10:15:51;22.30;46.50
82039;DHT22;71610;42.628;23.378;2023-10-13T10:18:23;22.30;46.50
82039;DHT22;71610;42.628;23.378;2023-10-13T10:20:51;22.30;46.70
82039;DHT22;71610;42.628;23.378;2023-10-13T10:23:28;22.30;46.60
82039;DHT22;71610;42.628;23.378;2023-10-13T10:26:12;22.40;46.50
82039;DHT22;71610;42.628;23.378;2023-10-13T10:28:43;22.30;46.40
82039;DHT22;71610;42.628;23.378;2023-10-13T10:31:10;22.40;46.30
82039;DHT22;71610;42.628;23.378;2023-10-13T10:33:40;22.30;45.70
82039;DHT22;71610;42.628;23.378;2023-10-13T10:36:07;22.30;45.70
82039;DHT22;71610;42.628;23.378;2023-10-13T10:38:52;22.30;45.80
82039;DHT22;71610;42.628;23.378;2023-10-13T10:41:27;22.40;45.90
82039;DHT22;71610;42.628;23.378;2023-10-13T10:44:16;22.40;46.30
82039;DHT22;71610;42.628;23.378;2023-10-13T10:46:49;22.30;46.20
82039;DHT22;71610;42.628;23.378;2023-10-13T10:49:22;22.40;46.30
82039;DHT22;71610;42.628;23.378;2023-10-13T10:52:00;22.30;46.10
82039;DHT22;71610;42.628;23.378;2023-10-13T10:54:31;22.40;45.60
82039;DHT22;71610;42.628;23.378;2023-10-13T10:57:00;22.30;45.40
82039;DHT22;71610;42.628;23.378;2023-10-13T10:59:47;22.40;45.10
82039;DHT22;71610;42.628;23.378;2023-10-13T11:02:13;22.30;44.90
82039;DHT22;71610;42.628;23.378;2023-10-13T11:04:43;22.30;44.80
82039;DHT22;71610;42.628;23.378;2023-10-13T11:07:24;22.30;44.80
82039;DHT22;71610;42.628;23.378;2023-10-13T11:09:50;22.30;44.60
82039;DHT22;71610;42.628;23.378;2023-10-13T11:12:32;22.30;44.40
82039;DHT22;71610;42.628;23.378;2023-10-13T11:15:04;22.30;44.20
82039;DHT22;71610;42.628;23.378;2023-10-13T11:17:39;22.30;44.20
82039;DHT22;71610;42.628;23.378;2023-10-13T11:20:13;22.30;44.00
82039;DHT22;71610;42.628;23.378;2023-10-13T11:22:49;22.30;44.20
82039;DHT22;71610;42.628;23.378;2023-10-13T11:25:30;22.30;43.70
82039;DHT22;71610;42.628;23.378;2023-10-13T11:30:35;22.30;43.40
82039;DHT22;71610;42.628;23.378;2023-10-13T11:33:05;22.30;43.10
82039;DHT22;71610;42.628;23.378;2023-10-13T11:35:35;22.30;42.90
82039;DHT22;71610;42.628;23.378;2023-10-13T11:41:04;22.30;42.10
82039;DHT22;71610;42.628;23.378;2023-10-13T11:43:34;22.30;41.60
82039;DHT22;71610;42.628;23.378;2023-10-13T11:46:12;22.30;41.20
82039;DHT22;71610;42.628;23.378;2023-10-13T11:48:41;22.30;40.30
82039;DHT22;71610;42.628;23.378;2023-10-13T11:51:14;22.30;39.70
82039;DHT22;71610;42.628;23.378;2023-10-13T11:53:43;22.30;39.70
82039;DHT22;71610;42.628;23.378;2023-10-13T11:56:10;22.30;38.70
82039;DHT22;71610;42.628;23.378;2023-10-13T11:58:37;22.20;38.70
82039;DHT22;71610;42.628;23.378;2023-10-13T12:01:03;22.30;38.70
82039;DHT22;71610;42.628;23.378;2023-10-13T12:03:38;22.20;38.70
82039;DHT22;71610;42.628;23.378;2023-10-13T12:06:22;22.30;38.80
82039;DHT22;71610;42.628;23.378;2023-10-13T12:08:59;22.30;39.10
82039;DHT22;71610;42.628;23.378;2023-10-13T12:11:39;22.30;39.50
82039;DHT22;71610;42.628;23.378;2023-10-13T12:14:08;22.30;39.70
82039;DHT22;71610;42.628;23.378;2023-10-13T12:16:49;22.30;40.00
82039;DHT22;71610;42.628;23.378;2023-10-13T12:19:19;22.30;40.10
82039;DHT22;71610;42.628;23.378;2023-10-13T12:21:55;22.30;40.30
82039;DHT22;71610;42.628;23.378;2023-10-13T12:24:26;22.30;40.60
82039;DHT22;71610;42.628;23.378;2023-10-13T12:27:01;22.30;40.60
82039;DHT22;71610;42.628;23.378;2023-10-13T12:29:27;22.20;40.80
82039;DHT22;71610;42.628;23.378;2023-10-13T12:31:58;22.20;41.70
82039;DHT22;71610;42.628;23.378;2023-10-13T12:34:37;22.30;42.70
82039;DHT22;71610;42.628;23.378;2023-10-13T12:37:32;22.30;43.40
82039;DHT22;71610;42.628;23.378;2023-10-13T12:40:02;22.30;44.40
82039;DHT22;71610;42.628;23.378;2023-10-13T12:42:47;22.40;45.00
82039;DHT22;71610;42.628;23.378;2023-10-13T12:45:31;22.40;45.50
82039;DHT22;71610;42.628;23.378;2023-10-13T12:48:15;22.40;45.50
82039;DHT22;71610;42.628;23.378;2023-10-13T12:51:03;22.40;45.80
82039;DHT22;71610;42.628;23.378;2023-10-13T12:53:51;22.40;46.30
82039;DHT22;71610;42.628;23.378;2023-10-13T12:56:19;22.50;46.30
82039;DHT22;71610;42.628;23.378;2023-10-13T12:58:52;22.50;46.40
82039;DHT22;71610;42.628;23.378;2023-10-13T13:01:18;22.50;46.30
82039;DHT22;71610;42.628;23.378;2023-10-13T13:03:51;22.50;46.40
82039;DHT22;71610;42.628;23.378;2023-10-13T13:06:22;22.50;46.10
82039;DHT22;71610;42.628;23.378;2023-10-13T13:08:55;22.40;45.90
82039;DHT22;71610;42.628;23.378;2023-10-13T13:11:21;22.50;46.50
82039;DHT22;71610;42.628;23.378;2023-10-13T13:13:47;22.50;47.20
82039;DHT22;71610;42.628;23.378;2023-10-13T13:16:14;22.50;47.40
82039;DHT22;71610;42.628;23.378;2023-10-13T13:18:39;22.50;47.60
82039;DHT22;71610;42.628;23.378;2023-10-13T13:21:05;22.40;48.20
82039;DHT22;71610;42.628;23.378;2023-10-13T13:23:37;22.50;48.70
82039;DHT22;71610;42.628;23.378;2023-10-13T13:26:05;22.50;49.30
82039;DHT22;71610;42.628;23.378;2023-10-13T13:28:41;22.50;49.80
82039;DHT22;71610;42.628;23.378;2023-10-13T13:31:08;22.50;50.30
82039;DHT22;71610;42.628;23.378;2023-10-13T13:33:34;22.50;50.70
82039;DHT22;71610;42.628;23.378;2023-10-13T13:36:07;22.50;51.10
82039;DHT22;71610;42.628;23.378;2023-10-13T13:38:33;22.50;51.40
82039;DHT22;71610;42.628;23.378;2023-10-13T13:40:59;22.50;51.50
82039;DHT22;71610;42.628;23.378;2023-10-13T13:43:27;22.50;51.70
82039;DHT22;71610;42.628;23.378;2023-10-13T13:46:19;22.50;51.70
82039;DHT22;71610;42.628;23.378;2023-10-13T13:48:53;22.50;51.90
82039;DHT22;71610;42.628;23.378;2023-10-13T13:51:25;22.40;51.80
82039;DHT22;71610;42.628;23.378;2023-10-13T13:53:55;22.50;51.70
82039;DHT22;71610;42.628;23.378;2023-10-13T13:56:22;22.50;51.70
82039;DHT22;71610;42.628;23.378;2023-10-13T13:58:51;22.50;51.70
82039;DHT22;71610;42.628;23.378;2023-10-13T14:01:18;22.50;51.50
82039;DHT22;71610;42.628;23.378;2023-10-13T14:03:46;22.40;51.40
82039;DHT22;71610;42.628;23.378;2023-10-13T14:06:13;22.50;51.50
82039;DHT22;71610;42.628;23.378;2023-10-13T14:08:58;22.40;51.40
82039;DHT22;71610;42.628;23.378;2023-10-13T14:11:59;22.40;51.20
82039;DHT22;71610;42.628;23.378;2023-10-13T14:15:03;22.40;51.20
82039;DHT22;71610;42.628;23.378;2023-10-13T14:17:29;22.40;51.20
82039;DHT22;71610;42.628;23.378;2023-10-13T14:19:58;22.40;51.20
82039;DHT22;71610;42.628;23.378;2023-10-13T14:22:24;22.40;51.10
82039;DHT22;71610;42.628;23.378;2023-10-13T14:24:51;22.40;51.10
82039;DHT22;71610;42.628;23.378;2023-10-13T14:27:21;22.40;51.00
82039;DHT22;71610;42.628;23.378;2023-10-13T14:29:49;22.40;51.00
82039;DHT22;71610;42.628;23.378;2023-10-13T14:32:19;22.40;51.00
82039;DHT22;71610;42.628;23.378;2023-10-13T14:34:46;22.40;51.00
82039;DHT22;71610;42.628;23.378;2023-10-13T14:37:22;22.40;50.90
82039;DHT22;71610;42.628;23.378;2023-10-13T14:39:58;22.40;50.90
82039;DHT22;71610;42.628;23.378;2023-10-13T14:42:28;22.40;50.90
82039;DHT22;71610;42.628;23.378;2023-10-13T14:44:54;22.40;50.70
82039;DHT22;71610;42.628;23.378;2023-10-13T14:47:23;22.40;50.70
82039;DHT22;71610;42.628;23.378;2023-10-13T14:49:59;22.40;50.70
82039;DHT22;71610;42.628;23.378;2023-10-13T14:52:29;22.40;50.50
82039;DHT22;71610;42.628;23.378;2023-10-13T14:54:57;22.40;50.60
82039;DHT22;71610;42.628;23.378;2023-10-13T14:57:23;22.40;50.50
82039;DHT22;71610;42.628;23.378;2023-10-13T14:59:53;22.40;50.50
82039;DHT22;71610;42.628;23.378;2023-10-13T15:02:19;22.40;50.50
82039;DHT22;71610;42.628;23.378;2023-10-13T15:04:47;22.40;50.40
82039;DHT22;71610;42.628;23.378;2023-10-13T15:07:17;22.40;50.40
82039;DHT22;71610;42.628;23.378;2023-10-13T15:09:43;22.40;50.40
82039;DHT22;71610;42.628;23.378;2023-10-13T15:12:10;22.40;50.40
82039;DHT22;71610;42.628;23.378;2023-10-13T15:14:39;22.30;50.30
82039;DHT22;71610;42.628;23.378;2023-10-13T15:17:08;22.30;50.30
82039;DHT22;71610;42.628;23.378;2023-10-13T15:19:35;22.30;50.20
82039;DHT22;71610;42.628;23.378;2023-10-13T15:22:07;22.30;50.20
82039;DHT22;71610;42.628;23.378;2023-10-13T15:24:34;22.40;50.20
82039;DHT22;71610;42.628;23.378;2023-10-13T15:27:10;22.30;50.10
82039;DHT22;71610;42.628;23.378;2023-10-13T15:29:36;22.30;50.20
82039;DHT22;71610;42.628;23.378;2023-10-13T15:32:02;22.30;50.20
82039;DHT22;71610;42.628;23.378;2023-10-13T15:34:28;22.30;50.10
82039;DHT22;71610;42.628;23.378;2023-10-13T15:36:55;22.30;50.10
82039;DHT22;71610;42.628;23.378;2023-10-13T15:39:22;22.30;50.10
82039;DHT22;71610;42.628;23.378;2023-10-13T15:41:55;22.30;50.10
82039;DHT22;71610;42.628;23.378;2023-10-13T15:44:27;22.30;50.10
82039;DHT22;71610;42.628;23.378;2023-10-13T15:46:57;22.30;50.10
82039;DHT22;71610;42.628;23.378;2023-10-13T15:49:23;22.30;50.00
82039;DHT22;71610;42.628;23.378;2023-10-13T15:51:49;22.30;50.10
82039;DHT22;71610;42.628;23.378;2023-10-13T15:54:17;22.30;50.00
82039;DHT22;71610;42.628;23.378;2023-10-13T15:56:43;22.30;50.10
82039;DHT22;71610;42.628;23.378;2023-10-13T15:59:12;22.30;50.00
82039;DHT22;71610;42.628;23.378;2023-10-13T16:01:38;22.30;50.00
82039;DHT22;71610;42.628;23.378;2023-10-13T16:04:09;22.30;50.00
82039;DHT22;71610;42.628;23.378;2023-10-13T16:06:43;22.30;50.10
82039;DHT22;71610;42.628;23.378;2023-10-13T16:09:16;22.30;50.00
82039;DHT22;71610;42.628;23.378;2023-10-13T16:11:49;22.20;49.90
82039;DHT22;71610;42.628;23.378;2023-10-13T16:14:15;22.30;50.00
82039;DHT22;71610;42.628;23.378;2023-10-13T16:16:44;22.30;50.00
82039;DHT22;71610;42.628;23.378;2023-10-13T16:19:10;22.20;49.90